sensor_id;sensor_type;location;lat;lon;timestamp;pressure;altitude;pressure_sealevel;temperature;humidity
15056;BME280;7626;42.674;23.284;2023-01-29T00:01:53;94841.34;;;6.34;55.90
15056;BME280;7626;42.674;23.284;2023-01-29T00:04:21;94843.84;;;6.36;55.80
15056;BME280;7626;42.674;23.284;2023-01-29T00:06:50;94844.75;;;6.35;55.91
15056;BME280;7626;42.674;23.284;2023-01-29T00:09:20;94846.59;;;6.33;55.31
15056;BME280;7626;42.674;23.284;2023-01-29T00:11:48;94848.91;;;6.37;55.77
15056;BME280;7626;42.674;23.284;2023-01-29T00:14:16;94853.22;;;6.37;55.18
15056;BME280;7626;42.674;23.284;2023-01-29T00:16:43;94853.16;;;6.38;55.39
15056;BME280;7626;42.674;23.284;2023-01-29T00:19:12;94849.63;;;6.39;55.74
15056;BME280;7626;42.674;23.284;2023-01-29T00:21:40;94862.59;;;6.38;55.62
15056;BME280;7626;42.674;23.284;2023-01-29T00:24:09;94860.78;;;6.40;55.63
15056;BME280;7626;42.674;23.284;2023-01-29T00:26:35;94854.78;;;6.39;55.46
15056;BME280;7626;42.674;23.284;2023-01-29T00:29:04;94855.56;;;6.41;55.64
15056;BME280;7626;42.674;23.284;2023-01-29T00:31:32;94859.84;;;6.41;55.22
15056;BME280;7626;42.674;23.284;2023-01-29T00:34:00;94858.22;;;6.40;55.62
15056;BME280;7626;42.674;23.284;2023-01-29T00:36:30;94859.03;;;6.40;55.83
15056;BME280;7626;42.674;23.284;2023-01-29T00:38:59;94860.69;;;6.41;55.65
15056;BME280;7626;42.674;23.284;2023-01-29T00:41:27;94870.22;;;6.39;55.20
15056;BME280;7626;42.674;23.284;2023-01-29T00:44:12;94862.34;;;6.42;55.83
15056;BME280;7626;42.674;23.284;2023-01-29T00:46:58;94870.06;;;6.42;55.87
15056;BME280;7626;42.674;23.284;2023-01-29T00:49:26;94866.75;;;6.40;55.54
15056;BME280;7626;42.674;23.284;2023-01-29T00:51:57;94858.13;;;6.41;55.78
15056;BME280;7626;42.674;23.284;2023-01-29T00:54:39;94869.25;;;6.42;55.08
15056;BME280;7626;42.674;23.284;2023-01-29T00:57:05;94865.00;;;6.41;55.42
15056;BME280;7626;42.674;23.284;2023-01-29T00:59:33;94867.56;;;6.41;55.09
15056;BME280;7626;42.674;23.284;2023-01-29T01:02:01;94859.75;;;6.42;55.85
15056;BME280;7626;42.674;23.284;2023-01-29T01:04:45;94859.75;;;6.42;55.30
15056;BME280;7626;42.674;23.284;2023-01-29T01:07:14;94859.84;;;6.41;55.67
15056;BME280;7626;42.674;23.284;2023-01-29T01:09:42;94854.69;;;6.41;55.38
15056;BME280;7626;42.674;23.284;2023-01-29T01:12:27;94855.63;;;6.40;55.83
15056;BME280;7626;42.674;23.284;2023-01-29T01:14:56;94856.53;;;6.39;55.21
15056;BME280;7626;42.674;23.284;2023-01-29T01:17:24;94859.19;;;6.37;55.50
15056;BME280;7626;42.674;23.284;2023-01-29T01:19:52;94860.03;;;6.38;55.45
15056;BME280;7626;42.674;23.284;2023-01-29T01:22:20;94855.63;;;6.40;55.34
15056;BME280;7626;42.674;23.284;2023-01-29T01:24:48;94859.13;;;6.39;55.27
15056;BME280;7626;42.674;23.284;2023-01-29T01:27:14;94858.38;;;6.37;55.21
15056;BME280;7626;42.674;23.284;2023-01-29T01:29:43;94861.78;;;6.37;55.47
15056;BME280;7626;42.674;23.284;2023-01-29T01:32:10;94854.97;;;6.36;55.91
15056;BME280;7626;42.674;23.284;2023-01-29T01:37:26;94849.72;;;6.38;55.48
15056;BME280;7626;42.674;23.284;2023-01-29T01:39:54;94862.69;;;6.36;55.13
15056;BME280;7626;42.674;23.284;2023-01-29T01:42:22;94858.38;;;6.37;55.74
15056;BME280;7626;42.674;23.284;2023-01-29T01:44:58;94858.47;;;6.35;55.26
15056;BME280;7626;42.674;23.284;2023-01-29T01:47:35;94854.13;;;6.36;55.69
15056;BME280;7626;42.674;23.284;2023-01-29T01:50:07;94868.78;;;6.35;55.68
15056;BME280;7626;42.674;23.284;2023-01-29T01:52:38;94867.09;;;6.34;55.81
15056;BME280;7626;42.674;23.284;2023-01-29T01:55:08;94868.78;;;6.35;55.48
15056;BME280;7626;42.674;23.284;2023-01-29T01:57:36;94869.59;;;6.36;55.54
15056;BME280;7626;42.674;23.284;2023-01-29T02:00:07;94868.78;;;6.35;55.99
15056;BME280;7626;42.674;23.284;2023-01-29T02:02:37;94875.63;;;6.35;55.79
15056;BME280;7626;42.674;23.284;2023-01-29T02:05:21;94877.41;;;6.34;55.58
15056;BME280;7626;42.674;23.284;2023-01-29T02:08:08;94878.41;;;6.32;55.57
15056;BME280;7626;42.674;23.284;2023-01-29T02:10:54;94885.94;;;6.35;56.14
15056;BME280;7626;42.674;23.284;2023-01-29T02:13:22;94873.06;;;6.35;55.84
15056;BME280;7626;42.674;23.284;2023-01-29T02:15:48;94867.28;;;6.31;56.07
15056;BME280;7626;42.674;23.284;2023-01-29T02:18:17;94871.44;;;6.34;56.16
15056;BME280;7626;42.674;23.284;2023-01-29T02:20:48;94875.75;;;6.33;55.47
15056;BME280;7626;42.674;23.284;2023-01-29T02:23:51;94875.75;;;6.33;56.08
15056;BME280;7626;42.674;23.284;2023-01-29T02:26:46;94875.84;;;6.32;56.21
15056;BME280;7626;42.674;23.284;2023-01-29T02:29:22;94876.66;;;6.32;56.21
15056;BME280;7626;42.674;23.284;2023-01-29T02:34:47;94886.06;;;6.33;55.87
15056;BME280;7626;42.674;23.284;2023-01-29T02:37:37;94890.34;;;6.33;56.29
15056;BME280;7626;42.674;23.284;2023-01-29T02:40:12;94894.59;;;6.34;55.65
15056;BME280;7626;42.674;23.284;2023-01-29T02:42:47;94887.69;;;6.34;56.27
15056;BME280;7626;42.674;23.284;2023-01-29T02:45:21;94898.06;;;6.33;56.32
15056;BME280;7626;42.674;23.284;2023-01-29T02:47:56;94896.34;;;6.33;55.67
15056;BME280;7626;42.674;23.284;2023-01-29T02:50:28;94902.31;;;6.34;56.29
15056;BME280;7626;42.674;23.284;2023-01-29T02:53:00;94903.16;;;6.34;56.15
15056;BME280;7626;42.674;23.284;2023-01-29T02:55:34;94897.91;;;6.36;56.15
15056;BME280;7626;42.674;23.284;2023-01-29T02:58:08;94901.22;;;6.38;56.07
15056;BME280;7626;42.674;23.284;2023-01-29T03:00:40;94895.34;;;6.36;56.29
15056;BME280;7626;42.674;23.284;2023-01-29T03:03:13;94898.81;;;6.35;56.31
15056;BME280;7626;42.674;23.284;2023-01-29T03:05:47;94889.28;;;6.37;56.35
15056;BME280;7626;42.674;23.284;2023-01-29T03:08:24;94893.78;;;6.33;55.96
15056;BME280;7626;42.674;23.284;2023-01-29T03:11:04;94895.50;;;6.33;55.82
15056;BME280;7626;42.674;23.284;2023-01-29T03:13:37;94899.84;;;6.32;56.48
15056;BME280;7626;42.674;23.284;2023-01-29T03:16:13;94896.53;;;6.30;56.13
15056;BME280;7626;42.674;23.284;2023-01-29T03:18:51;94904.50;;;6.25;56.58
15056;BME280;7626;42.674;23.284;2023-01-29T03:21:24;94904.25;;;6.30;56.09
15056;BME280;7626;42.674;23.284;2023-01-29T03:24:13;94906.06;;;6.28;56.66
15056;BME280;7626;42.674;23.284;2023-01-29T03:27:01;94908.63;;;6.28;56.06
15056;BME280;7626;42.674;23.284;2023-01-29T03:29:48;94902.66;;;6.28;56.09
15056;BME280;7626;42.674;23.284;2023-01-29T03:32:37;94909.47;;;6.29;56.13
15056;BME280;7626;42.674;23.284;2023-01-29T03:35:07;94902.56;;;6.29;56.08
15056;BME280;7626;42.674;23.284;2023-01-29T03:37:40;94910.31;;;6.29;56.32
15056;BME280;7626;42.674;23.284;2023-01-29T03:40:11;94904.34;;;6.29;55.91
15056;BME280;7626;42.674;23.284;2023-01-29T03:42:48;94903.47;;;6.28;56.15
15056;BME280;7626;42.674;23.284;2023-01-29T03:45:26;94905.16;;;6.29;55.84
15056;BME280;7626;42.674;23.284;2023-01-29T03:48:05;94907.72;;;6.29;56.08
15056;BME280;7626;42.674;23.284;2023-01-29T03:50:36;94902.50;;;6.31;56.18
15056;BME280;7626;42.674;23.284;2023-01-29T03:53:08;94899.25;;;6.27;56.32
15056;BME280;7626;42.674;23.284;2023-01-29T03:55:43;94902.56;;;6.29;55.90
15056;BME280;7626;42.674;23.284;2023-01-29T03:58:22;94905.97;;;6.30;56.26
15056;BME280;7626;42.674;23.284;2023-01-29T04:00:57;94905.16;;;6.29;55.80
15056;BME280;7626;42.674;23.284;2023-01-29T04:03:33;94902.00;;;6.24;56.05
15056;BME280;7626;42.674;23.284;2023-01-29T04:06:04;94906.13;;;6.26;55.87
15056;BME280;7626;42.674;23.284;2023-01-29T04:08:39;94903.56;;;6.26;55.97
15056;BME280;7626;42.674;23.284;2023-01-29T04:11:14;94906.13;;;6.26;56.38
15056;BME280;7626;42.674;23.284;2023-01-29T04:13:42;94909.66;;;6.25;55.92
15056;BME280;7626;42.674;23.284;2023-01-29T04:16:16;94910.63;;;6.23;56.02
15056;BME280;7626;42.674;23.284;2023-01-29T04:18:47;94908.81;;;6.25;56.27
15056;BME280;7626;42.674;23.284;2023-01-29T04:21:16;94916.56;;;6.25;56.12
15056;BME280;7626;42.674;23.284;2023-01-29T04:23:44;94917.38;;;6.25;55.88
15056;BME280;7626;42.674;23.284;2023-01-29T04:26:40;94919.00;;;6.26;56.05
15056;BME280;7626;42.674;23.284;2023-01-29T04:29:24;94911.28;;;6.26;56.54
15056;BME280;7626;42.674;23.284;2023-01-29T04:32:01;94915.78;;;6.23;56.22
15056;BME280;7626;42.674;23.284;2023-01-29T04:34:44;94917.38;;;6.25;56.04
15056;BME280;7626;42.674;23.284;2023-01-29T04:37:22;94918.28;;;6.24;56.06
15056;BME280;7626;42.674;23.284;2023-01-29T04:39:57;94919.94;;;6.25;56.31
15056;BME280;7626;42.674;23.284;2023-01-29T04:42:30;94922.69;;;6.22;56.31
15056;BME280;7626;42.674;23.284;2023-01-29T04:45:03;94919.13;;;6.25;56.41
15056;BME280;7626;42.674;23.284;2023-01-29T04:47:41;94925.09;;;6.25;55.91
15056;BME280;7626;42.674;23.284;2023-01-29T04:50:19;94917.38;;;6.25;56.25
15056;BME280;7626;42.674;23.284;2023-01-29T04:52:56;94925.19;;;6.24;56.15
15056;BME280;7626;42.674;23.284;2023-01-29T04:55:34;94922.59;;;6.24;56.32
15056;BME280;7626;42.674;23.284;2023-01-29T04:58:07;94925.91;;;6.26;55.97
15056;BME280;7626;42.674;23.284;2023-01-29T05:00:39;94927.59;;;6.27;56.47
15056;BME280;7626;42.674;23.284;2023-01-29T05:03:07;94927.66;;;6.25;56.18
15056;BME280;7626;42.674;23.284;2023-01-29T05:05:40;94924.16;;;6.26;56.13
15056;BME280;7626;42.674;23.284;2023-01-29T05:08:10;94927.66;;;6.25;56.19
15056;BME280;7626;42.674;23.284;2023-01-29T05:10:38;94931.16;;;6.24;56.14
15056;BME280;7626;42.674;23.284;2023-01-29T05:13:09;94929.41;;;6.25;55.69
15056;BME280;7626;42.674;23.284;2023-01-29T05:15:41;94930.31;;;6.24;55.99
15056;BME280;7626;42.674;23.284;2023-01-29T05:18:09;94934.66;;;6.23;56.24
15056;BME280;7626;42.674;23.284;2023-01-29T05:20:39;94932.16;;;6.22;55.93
15056;BME280;7626;42.674;23.284;2023-01-29T05:23:09;94938.88;;;6.24;55.81
15056;BME280;7626;42.674;23.284;2023-01-29T05:25:37;94938.94;;;6.23;56.10
15056;BME280;7626;42.674;23.284;2023-01-29T05:28:04;94938.13;;;6.22;56.16
15056;BME280;7626;42.674;23.284;2023-01-29T05:30:32;94943.28;;;6.22;56.27
15056;BME280;7626;42.674;23.284;2023-01-29T05:32:59;94936.47;;;6.21;55.83
15056;BME280;7626;42.674;23.284;2023-01-29T05:35:27;94949.34;;;6.21;56.48
15056;BME280;7626;42.674;23.284;2023-01-29T05:38:00;94946.66;;;6.23;56.22
15056;BME280;7626;42.674;23.284;2023-01-29T05:40:28;94948.44;;;6.22;56.39
15056;BME280;7626;42.674;23.284;2023-01-29T05:42:56;94950.19;;;6.22;55.75
15056;BME280;7626;42.674;23.284;2023-01-29T05:45:25;94946.66;;;6.23;56.18
15056;BME280;7626;42.674;23.284;2023-01-29T05:47:54;94947.59;;;6.22;56.03
15056;BME280;7626;42.674;23.284;2023-01-29T05:50:23;94955.34;;;6.22;55.78
15056;BME280;7626;42.674;23.284;2023-01-29T05:52:56;94952.69;;;6.23;55.74
15056;BME280;7626;42.674;23.284;2023-01-29T05:55:28;94953.66;;;6.21;55.70
15056;BME280;7626;42.674;23.284;2023-01-29T05:57:56;94953.56;;;6.22;55.78
15056;BME280;7626;42.674;23.284;2023-01-29T06:00:23;94957.91;;;6.22;56.38
15056;BME280;7626;42.674;23.284;2023-01-29T06:02:51;94971.59;;;6.22;55.98
15056;BME280;7626;42.674;23.284;2023-01-29T06:05:19;94969.09;;;6.21;55.91
15056;BME280;7626;42.674;23.284;2023-01-29T06:07:47;94969.94;;;6.21;56.25
15056;BME280;7626;42.674;23.284;2023-01-29T06:10:17;94971.69;;;6.21;56.09
15056;BME280;7626;42.674;23.284;2023-01-29T06:12:45;94977.66;;;6.21;56.32
15056;BME280;7626;42.674;23.284;2023-01-29T06:15:12;94979.31;;;6.22;56.13
15056;BME280;7626;42.674;23.284;2023-01-29T06:17:40;94987.03;;;6.22;56.08
15056;BME280;7626;42.674;23.284;2023-01-29T06:20:08;94978.41;;;6.23;56.37
15056;BME280;7626;42.674;23.284;2023-01-29T06:22:36;94986.88;;;6.25;56.04
15056;BME280;7626;42.674;23.284;2023-01-29T06:25:05;94987.69;;;6.26;56.59
15056;BME280;7626;42.674;23.284;2023-01-29T06:27:33;94991.22;;;6.25;56.16
15056;BME280;7626;42.674;23.284;2023-01-29T06:30:02;94999.75;;;6.25;55.91
15056;BME280;7626;42.674;23.284;2023-01-29T06:32:29;95001.31;;;6.28;55.79
15056;BME280;7626;42.674;23.284;2023-01-29T06:34:56;95001.22;;;6.30;55.74
15056;BME280;7626;42.674;23.284;2023-01-29T06:37:23;95002.09;;;6.30;56.08
15056;BME280;7626;42.674;23.284;2023-01-29T06:39:51;95016.59;;;6.31;55.95
15056;BME280;7626;42.674;23.284;2023-01-29T06:42:18;95015.94;;;6.28;55.95
15056;BME280;7626;42.674;23.284;2023-01-29T06:44:46;95011.69;;;6.26;56.55
15056;BME280;7626;42.674;23.284;2023-01-29T06:47:13;95011.59;;;6.28;55.88
15056;BME280;7626;42.674;23.284;2023-01-29T06:49:40;95008.13;;;6.29;56.53
15056;BME280;7626;42.674;23.284;2023-01-29T06:52:08;95013.28;;;6.29;56.26
15056;BME280;7626;42.674;23.284;2023-01-29T06:54:35;95019.25;;;6.30;56.55
15056;BME280;7626;42.674;23.284;2023-01-29T06:57:03;95022.59;;;6.32;56.28
15056;BME280;7626;42.674;23.284;2023-01-29T06:59:31;95023.41;;;6.32;56.03
15056;BME280;7626;42.674;23.284;2023-01-29T07:02:08;95014.94;;;6.30;56.48
15056;BME280;7626;42.674;23.284;2023-01-29T07:04:42;95022.59;;;6.32;56.06
15056;BME280;7626;42.674;23.284;2023-01-29T07:07:09;95021.66;;;6.33;56.22
15056;BME280;7626;42.674;23.284;2023-01-29T07:09:40;95027.66;;;6.33;56.02
15056;BME280;7626;42.674;23.284;2023-01-29T07:12:08;95029.56;;;6.30;56.08
15056;BME280;7626;42.674;23.284;2023-01-29T07:14:36;95032.69;;;6.35;56.12
15056;BME280;7626;42.674;23.284;2023-01-29T07:17:05;95031.06;;;6.34;56.47
15056;BME280;7626;42.674;23.284;2023-01-29T07:19:32;95039.59;;;6.34;56.42
15056;BME280;7626;42.674;23.284;2023-01-29T07:22:00;95039.59;;;6.34;56.32
15056;BME280;7626;42.674;23.284;2023-01-29T07:24:28;95049.09;;;6.34;56.45
15056;BME280;7626;42.674;23.284;2023-01-29T07:26:55;95046.50;;;6.34;56.31
15056;BME280;7626;42.674;23.284;2023-01-29T07:29:21;95048.16;;;6.35;55.76
15056;BME280;7626;42.674;23.284;2023-01-29T07:31:48;95042.19;;;6.34;56.46
15056;BME280;7626;42.674;23.284;2023-01-29T07:34:16;95051.56;;;6.35;56.16
15056;BME280;7626;42.674;23.284;2023-01-29T07:36:51;95043.00;;;6.35;56.49
15056;BME280;7626;42.674;23.284;2023-01-29T07:39:18;95049.75;;;6.37;55.75
15056;BME280;7626;42.674;23.284;2023-01-29T07:41:46;95046.25;;;6.38;56.27
15056;BME280;7626;42.674;23.284;2023-01-29T07:44:13;95054.88;;;6.37;56.28
15056;BME280;7626;42.674;23.284;2023-01-29T07:46:47;95056.47;;;6.40;56.08
15056;BME280;7626;42.674;23.284;2023-01-29T07:49:30;95051.41;;;6.38;55.96
15056;BME280;7626;42.674;23.284;2023-01-29T07:52:05;95057.47;;;6.37;55.68
15056;BME280;7626;42.674;23.284;2023-01-29T07:54:32;95061.72;;;6.38;56.01
15056;BME280;7626;42.674;23.284;2023-01-29T07:56:59;95059.88;;;6.40;56.28
15056;BME280;7626;42.674;23.284;2023-01-29T07:59:27;95061.63;;;6.40;56.18
15056;BME280;7626;42.674;23.284;2023-01-29T08:02:03;95063.13;;;6.44;55.64
15056;BME280;7626;42.674;23.284;2023-01-29T08:04:31;95057.97;;;6.44;56.18
15056;BME280;7626;42.674;23.284;2023-01-29T08:06:59;95066.50;;;6.44;55.69
15056;BME280;7626;42.674;23.284;2023-01-29T08:09:26;95070.69;;;6.47;56.01
15056;BME280;7626;42.674;23.284;2023-01-29T08:11:53;95072.44;;;6.47;56.29
15056;BME280;7626;42.674;23.284;2023-01-29T08:14:20;95066.44;;;6.46;55.95
15056;BME280;7626;42.674;23.284;2023-01-29T08:16:49;95072.59;;;6.43;55.75
15056;BME280;7626;42.674;23.284;2023-01-29T08:19:17;95069.84;;;6.47;56.29
15056;BME280;7626;42.674;23.284;2023-01-29T08:21:46;95069.78;;;6.48;55.77
15056;BME280;7626;42.674;23.284;2023-01-29T08:24:13;95073.16;;;6.49;56.08
15056;BME280;7626;42.674;23.284;2023-01-29T08:26:41;95069.78;;;6.48;56.22
15056;BME280;7626;42.674;23.284;2023-01-29T08:29:09;95074.84;;;6.50;55.88
15056;BME280;7626;42.674;23.284;2023-01-29T08:31:37;95075.75;;;6.49;55.45
15056;BME280;7626;42.674;23.284;2023-01-29T08:34:05;95087.72;;;6.50;55.88
15056;BME280;7626;42.674;23.284;2023-01-29T08:36:32;95080.81;;;6.50;56.17
15056;BME280;7626;42.674;23.284;2023-01-29T08:39:00;95089.44;;;6.49;55.83
15056;BME280;7626;42.674;23.284;2023-01-29T08:41:27;95093.84;;;6.47;55.58
15056;BME280;7626;42.674;23.284;2023-01-29T08:43:55;95094.59;;;6.49;55.95
15056;BME280;7626;42.674;23.284;2023-01-29T08:46:23;95092.09;;;6.48;56.27
15056;BME280;7626;42.674;23.284;2023-01-29T08:48:51;95091.28;;;6.47;56.07
15056;BME280;7626;42.674;23.284;2023-01-29T08:51:18;95099.00;;;6.47;55.78
15056;BME280;7626;42.674;23.284;2023-01-29T08:53:44;95101.50;;;6.49;55.82
15056;BME280;7626;42.674;23.284;2023-01-29T08:56:12;95106.56;;;6.50;55.40
15056;BME280;7626;42.674;23.284;2023-01-29T08:58:40;95113.47;;;6.50;56.01
15056;BME280;7626;42.674;23.284;2023-01-29T09:01:08;95108.22;;;6.51;55.95
15056;BME280;7626;42.674;23.284;2023-01-29T09:03:35;95108.22;;;6.51;55.46
15056;BME280;7626;42.674;23.284;2023-01-29T09:06:05;95116.88;;;6.50;55.64
15056;BME280;7626;42.674;23.284;2023-01-29T09:08:32;95114.38;;;6.49;55.77
15056;BME280;7626;42.674;23.284;2023-01-29T09:10:59;95111.72;;;6.50;55.58
15056;BME280;7626;42.674;23.284;2023-01-29T09:13:27;95118.34;;;6.54;55.29
15056;BME280;7626;42.674;23.284;2023-01-29T09:15:53;95108.91;;;6.55;55.73
15056;BME280;7626;42.674;23.284;2023-01-29T09:18:23;95107.16;;;6.55;55.83
15056;BME280;7626;42.674;23.284;2023-01-29T09:20:52;95111.41;;;6.56;55.25
15056;BME280;7626;42.674;23.284;2023-01-29T09:23:19;95107.06;;;6.57;55.58
15056;BME280;7626;42.674;23.284;2023-01-29T09:25:46;95105.31;;;6.57;55.70
15056;BME280;7626;42.674;23.284;2023-01-29T09:28:12;95105.41;;;6.56;55.80
15056;BME280;7626;42.674;23.284;2023-01-29T09:30:40;95111.41;;;6.56;55.67
15056;BME280;7626;42.674;23.284;2023-01-29T09:33:07;95108.81;;;6.56;55.72
15056;BME280;7626;42.674;23.284;2023-01-29T09:35:34;95108.81;;;6.56;55.38
15056;BME280;7626;42.674;23.284;2023-01-29T09:38:01;95104.50;;;6.57;55.34
15056;BME280;7626;42.674;23.284;2023-01-29T09:40:33;95094.13;;;6.58;55.66
15056;BME280;7626;42.674;23.284;2023-01-29T09:43:03;95087.22;;;6.59;55.36
15056;BME280;7626;42.674;23.284;2023-01-29T09:45:33;95095.88;;;6.58;55.53
15056;BME280;7626;42.674;23.284;2023-01-29T09:48:03;95095.00;;;6.57;55.21
15056;BME280;7626;42.674;23.284;2023-01-29T09:50:35;95093.38;;;6.56;55.02
15056;BME280;7626;42.674;23.284;2023-01-29T09:53:12;95084.63;;;6.59;55.39
15056;BME280;7626;42.674;23.284;2023-01-29T09:55:44;95091.38;;;6.61;55.61
15056;BME280;7626;42.674;23.284;2023-01-29T09:58:17;95078.75;;;6.57;55.36
15056;BME280;7626;42.674;23.284;2023-01-29T10:00:52;95092.44;;;6.57;55.03
15056;BME280;7626;42.674;23.284;2023-01-29T10:03:43;95083.88;;;6.57;54.82
15056;BME280;7626;42.674;23.284;2023-01-29T10:06:22;95087.28;;;6.57;54.90
15056;BME280;7626;42.674;23.284;2023-01-29T10:09:10;95078.09;;;6.53;55.37
15056;BME280;7626;42.674;23.284;2023-01-29T10:11:47;95071.91;;;6.56;55.27
15056;BME280;7626;42.674;23.284;2023-01-29T10:14:26;95077.06;;;6.56;55.47
15056;BME280;7626;42.674;23.284;2023-01-29T10:17:04;95072.00;;;6.54;54.91
15056;BME280;7626;42.674;23.284;2023-01-29T10:19:50;95075.50;;;6.53;55.36
15056;BME280;7626;42.674;23.284;2023-01-29T10:22:44;95073.84;;;6.52;55.32
15056;BME280;7626;42.674;23.284;2023-01-29T10:25:18;95071.09;;;6.55;55.44
15056;BME280;7626;42.674;23.284;2023-01-29T10:27:48;95073.66;;;6.55;55.31
15056;BME280;7626;42.674;23.284;2023-01-29T10:30:32;95062.72;;;6.52;55.58
15056;BME280;7626;42.674;23.284;2023-01-29T10:33:02;95064.34;;;6.53;55.42
15056;BME280;7626;42.674;23.284;2023-01-29T10:35:33;95052.50;;;6.50;54.88
15056;BME280;7626;42.674;23.284;2023-01-29T10:38:17;95057.41;;;6.55;55.53
15056;BME280;7626;42.674;23.284;2023-01-29T10:40:54;95053.16;;;6.54;55.06
15056;BME280;7626;42.674;23.284;2023-01-29T10:43:32;95060.06;;;6.53;55.04
15056;BME280;7626;42.674;23.284;2023-01-29T10:46:09;95056.53;;;6.54;55.16
15056;BME280;7626;42.674;23.284;2023-01-29T10:48:53;95060.13;;;6.52;55.54
15056;BME280;7626;42.674;23.284;2023-01-29T10:51:53;95054.97;;;6.52;55.27
15056;BME280;7626;42.674;23.284;2023-01-29T10:54:34;95047.19;;;6.53;55.36
15056;BME280;7626;42.674;23.284;2023-01-29T10:57:11;95047.09;;;6.55;54.98
15056;BME280;7626;42.674;23.284;2023-01-29T10:59:53;95047.25;;;6.52;55.00
15056;BME280;7626;42.674;23.284;2023-01-29T11:02:22;95050.06;;;6.47;55.25
15056;BME280;7626;42.674;23.284;2023-01-29T11:04:49;95046.69;;;6.47;55.57
15056;BME280;7626;42.674;23.284;2023-01-29T11:07:20;95040.44;;;6.51;55.79
15056;BME280;7626;42.674;23.284;2023-01-29T11:09:54;95036.09;;;6.51;55.72
15056;BME280;7626;42.674;23.284;2023-01-29T11:12:26;95042.94;;;6.52;55.55
15056;BME280;7626;42.674;23.284;2023-01-29T11:15:00;95041.09;;;6.54;55.50
15056;BME280;7626;42.674;23.284;2023-01-29T11:17:32;95037.59;;;6.55;55.67
15056;BME280;7626;42.674;23.284;2023-01-29T11:19:58;95041.00;;;6.56;55.87
15056;BME280;7626;42.674;23.284;2023-01-29T11:22:28;95035.78;;;6.57;55.09
15056;BME280;7626;42.674;23.284;2023-01-29T11:25:15;95030.53;;;6.59;55.23
15056;BME280;7626;42.674;23.284;2023-01-29T11:27:48;95034.72;;;6.61;55.53
15056;BME280;7626;42.674;23.284;2023-01-29T11:30:31;95030.38;;;6.62;55.81
15056;BME280;7626;42.674;23.284;2023-01-29T11:33:11;95026.03;;;6.62;55.36
15056;BME280;7626;42.674;23.284;2023-01-29T11:35:44;95017.56;;;6.60;55.18
15056;BME280;7626;42.674;23.284;2023-01-29T11:38:22;95017.31;;;6.65;55.05
15056;BME280;7626;42.674;23.284;2023-01-29T11:41:04;95004.38;;;6.67;55.32
15056;BME280;7626;42.674;23.284;2023-01-29T11:43:32;95002.59;;;6.67;55.18
15056;BME280;7626;42.674;23.284;2023-01-29T11:46:00;95000.13;;;6.66;55.25
15056;BME280;7626;42.674;23.284;2023-01-29T11:48:40;95000.84;;;6.68;55.51
15056;BME280;7626;42.674;23.284;2023-01-29T11:51:09;94999.88;;;6.70;54.87
15056;BME280;7626;42.674;23.284;2023-01-29T11:53:42;94997.28;;;6.70;55.03
15056;BME280;7626;42.674;23.284;2023-01-29T11:56:21;94993.81;;;6.71;55.29
15056;BME280;7626;42.674;23.284;2023-01-29T11:58:52;94992.13;;;6.70;55.18
15056;BME280;7626;42.674;23.284;2023-01-29T12:01:29;94997.84;;;6.75;55.27
15056;BME280;7626;42.674;23.284;2023-01-29T12:04:02;94992.63;;;6.77;55.37
15056;BME280;7626;42.674;23.284;2023-01-29T12:06:33;94991.78;;;6.76;54.75
15056;BME280;7626;42.674;23.284;2023-01-29T12:09:09;94988.38;;;6.76;54.88
15056;BME280;7626;42.674;23.284;2023-01-29T12:11:41;94987.38;;;6.78;54.99
15056;BME280;7626;42.674;23.284;2023-01-29T12:14:23;94983.13;;;6.77;55.33
15056;BME280;7626;42.674;23.284;2023-01-29T12:16:57;94983.13;;;6.77;55.13
15056;BME280;7626;42.674;23.284;2023-01-29T12:19:32;94981.50;;;6.76;55.03
15056;BME280;7626;42.674;23.284;2023-01-29T12:22:03;94991.72;;;6.78;55.08
15056;BME280;7626;42.674;23.284;2023-01-29T12:24:40;94987.53;;;6.75;54.76
15056;BME280;7626;42.674;23.284;2023-01-29T12:27:14;94991.53;;;6.81;54.81
15056;BME280;7626;42.674;23.284;2023-01-29T12:29:48;94993.44;;;6.77;54.80
15056;BME280;7626;42.674;23.284;2023-01-29T12:32:28;94987.38;;;6.78;55.18
15056;BME280;7626;42.674;23.284;2023-01-29T12:35:02;94991.53;;;6.81;55.12
15056;BME280;7626;42.674;23.284;2023-01-29T12:37:39;94992.53;;;6.78;54.56
15056;BME280;7626;42.674;23.284;2023-01-29T12:40:17;94994.94;;;6.81;54.85
15056;BME280;7626;42.674;23.284;2023-01-29T12:42:47;94993.00;;;6.85;55.01
15056;BME280;7626;42.674;23.284;2023-01-29T12:45:18;94996.50;;;6.84;54.68
15056;BME280;7626;42.674;23.284;2023-01-29T12:47:50;94994.75;;;6.85;55.01
15056;BME280;7626;42.674;23.284;2023-01-29T12:50:21;94991.34;;;6.84;54.58
15056;BME280;7626;42.674;23.284;2023-01-29T12:52:54;95001.66;;;6.84;55.01
15056;BME280;7626;42.674;23.284;2023-01-29T12:55:31;95004.06;;;6.87;54.74
15056;BME280;7626;42.674;23.284;2023-01-29T12:58:01;94998.16;;;6.85;54.83
15056;BME280;7626;42.674;23.284;2023-01-29T13:00:34;94988.59;;;6.87;54.60
15056;BME280;7626;42.674;23.284;2023-01-29T13:03:09;94991.25;;;6.86;55.07
15056;BME280;7626;42.674;23.284;2023-01-29T13:05:40;94994.94;;;6.81;54.54
15056;BME280;7626;42.674;23.284;2023-01-29T13:08:15;94993.75;;;6.87;54.74
15056;BME280;7626;42.674;23.284;2023-01-29T13:10:49;94988.03;;;6.82;54.49
15056;BME280;7626;42.674;23.284;2023-01-29T13:13:26;94986.09;;;6.86;54.75
15056;BME280;7626;42.674;23.284;2023-01-29T13:15:59;94985.38;;;6.84;55.09
15056;BME280;7626;42.674;23.284;2023-01-29T13:18:35;94984.47;;;6.85;54.82
15056;BME280;7626;42.674;23.284;2023-01-29T13:21:11;94981.78;;;6.86;54.77
15056;BME280;7626;42.674;23.284;2023-01-29T13:23:43;94988.75;;;6.84;54.64
15056;BME280;7626;42.674;23.284;2023-01-29T13:26:17;94985.28;;;6.85;54.39
15056;BME280;7626;42.674;23.284;2023-01-29T13:28:48;94992.19;;;6.85;55.02
15056;BME280;7626;42.674;23.284;2023-01-29T13:31:29;94993.19;;;6.82;54.52
15056;BME280;7626;42.674;23.284;2023-01-29T13:34:06;95001.66;;;6.84;54.73
15056;BME280;7626;42.674;23.284;2023-01-29T13:36:42;95004.13;;;6.86;54.86
15056;BME280;7626;42.674;23.284;2023-01-29T13:39:21;95000.75;;;6.85;54.49
15056;BME280;7626;42.674;23.284;2023-01-29T13:41:51;95007.56;;;6.86;54.95
15056;BME280;7626;42.674;23.284;2023-01-29T13:44:22;95004.13;;;6.86;55.02